sensor_id;sensor_type;location;lat;lon;timestamp;pressure;altitude;pressure_sealevel;temperature;humidity
30819;BME280;17546;42.674;23.284;2023-02-12T00:00:35;95673.72;;;6.82;28.55
30819;BME280;17546;42.674;23.284;2023-02-12T00:03:01;95666.63;;;7.26;27.66
30819;BME280;17546;42.674;23.284;2023-02-12T00:05:26;95678.88;;;6.71;28.60
30819;BME280;17546;42.674;23.284;2023-02-12T00:07:52;95672.31;;;6.56;28.71
30819;BME280;17546;42.674;23.284;2023-02-12T00:10:18;95675.47;;;7.20;27.46
30819;BME280;17546;42.674;23.284;2023-02-12T00:12:43;95677.06;;;6.99;27.73
30819;BME280;17546;42.674;23.284;2023-02-12T00:15:09;95675.28;;;6.83;27.43
30819;BME280;17546;42.674;23.284;2023-02-12T00:17:34;95685.31;;;6.33;28.69
30819;BME280;17546;42.674;23.284;2023-02-12T00:20:00;95677.44;;;6.89;28.13
30819;BME280;17546;42.674;23.284;2023-02-12T00:22:25;95676.03;;;7.06;27.76
30819;BME280;17546;42.674;23.284;2023-02-12T00:24:52;95671.56;;;6.77;28.11
30819;BME280;17546;42.674;23.284;2023-02-12T00:27:17;95675.47;;;7.20;28.12
30819;BME280;17546;42.674;23.284;2023-02-12T00:29:42;95677.41;;;7.42;27.81
30819;BME280;17546;42.674;23.284;2023-02-12T00:32:08;95672.97;;;7.85;27.15
30819;BME280;17546;42.674;23.284;2023-02-12T00:34:33;95675.00;;;7.13;27.80
30819;BME280;17546;42.674;23.284;2023-02-12T00:36:59;95653.47;;;6.32;28.37
30819;BME280;17546;42.674;23.284;2023-02-12T00:39:28;95656.78;;;6.62;28.55
30819;BME280;17546;42.674;23.284;2023-02-12T00:41:53;95649.00;;;6.92;28.72
30819;BME280;17546;42.674;23.284;2023-02-12T00:44:19;95645.44;;;6.60;28.65
30819;BME280;17546;42.674;23.284;2023-02-12T00:46:44;95639.56;;;6.71;28.56
30819;BME280;17546;42.674;23.284;2023-02-12T00:49:10;95643.91;;;7.12;27.45
30819;BME280;17546;42.674;23.284;2023-02-12T00:51:35;95635.34;;;7.10;27.71
30819;BME280;17546;42.674;23.284;2023-02-12T00:54:00;95635.25;;;7.01;27.37
30819;BME280;17546;42.674;23.284;2023-02-12T00:56:26;95627.13;;;7.29;27.59
30819;BME280;17546;42.674;23.284;2023-02-12T00:58:51;95616.28;;;6.72;28.00
30819;BME280;17546;42.674;23.284;2023-02-12T01:01:17;95624.69;;;6.68;28.45
30819;BME280;17546;42.674;23.284;2023-02-12T01:03:43;95620.59;;;7.04;28.18
30819;BME280;17546;42.674;23.284;2023-02-12T01:06:08;95619.31;;;7.27;28.13
30819;BME280;17546;42.674;23.284;2023-02-12T01:08:33;95604.03;;;6.95;27.86
30819;BME280;17546;42.674;23.284;2023-02-12T01:11:01;95610.63;;;6.66;28.24
30819;BME280;17546;42.674;23.284;2023-02-12T01:13:28;95621.09;;;6.80;28.62
30819;BME280;17546;42.674;23.284;2023-02-12T01:16:19;95622.03;;;6.87;28.26
30819;BME280;17546;42.674;23.284;2023-02-12T01:18:45;95614.78;;;6.49;28.76
30819;BME280;17546;42.674;23.284;2023-02-12T01:21:20;95626.16;;;6.60;28.88
30819;BME280;17546;42.674;23.284;2023-02-12T01:23:46;95622.88;;;6.30;29.27
30819;BME280;17546;42.674;23.284;2023-02-12T01:26:21;95620.41;;;6.45;29.20
30819;BME280;17546;42.674;23.284;2023-02-12T01:28:52;95625.25;;;6.19;29.79
30819;BME280;17546;42.674;23.284;2023-02-12T01:31:20;95627.25;;;6.18;29.59
30819;BME280;17546;42.674;23.284;2023-02-12T01:33:47;95636.28;;;6.06;30.32
30819;BME280;17546;42.674;23.284;2023-02-12T01:36:13;95630.81;;;6.28;30.19
30819;BME280;17546;42.674;23.284;2023-02-12T01:38:38;95629.03;;;6.34;30.01
30819;BME280;17546;42.674;23.284;2023-02-12T01:41:16;95627.09;;;5.87;30.68
30819;BME280;17546;42.674;23.284;2023-02-12T01:43:41;95619.31;;;6.43;30.16
30819;BME280;17546;42.674;23.284;2023-02-12T01:46:09;95628.16;;;6.81;29.73
30819;BME280;17546;42.674;23.284;2023-02-12T01:48:39;95610.84;;;6.81;29.66
30819;BME280;17546;42.674;23.284;2023-02-12T01:51:08;95597.47;;;6.70;29.61
30819;BME280;17546;42.674;23.284;2023-02-12T01:53:38;95591.72;;;6.55;30.32
30819;BME280;17546;42.674;23.284;2023-02-12T01:56:05;95601.22;;;7.17;29.39
30819;BME280;17546;42.674;23.284;2023-02-12T01:58:36;95610.44;;;6.92;29.22
30819;BME280;17546;42.674;23.284;2023-02-12T02:01:05;95607.09;;;6.97;29.54
30819;BME280;17546;42.674;23.284;2023-02-12T02:03:33;95609.38;;;6.67;29.64
30819;BME280;17546;42.674;23.284;2023-02-12T02:06:07;95610.25;;;7.17;29.58
30819;BME280;17546;42.674;23.284;2023-02-12T02:08:35;95615.63;;;7.21;29.20
30819;BME280;17546;42.674;23.284;2023-02-12T02:11:01;95609.63;;;7.13;29.33
30819;BME280;17546;42.674;23.284;2023-02-12T02:13:46;95614.38;;;7.13;28.94
30819;BME280;17546;42.674;23.284;2023-02-12T02:16:33;95608.69;;;7.16;29.39
30819;BME280;17546;42.674;23.284;2023-02-12T02:19:11;95611.50;;;7.26;29.47
30819;BME280;17546;42.674;23.284;2023-02-12T02:27:22;95614.31;;;6.28;30.65
30819;BME280;17546;42.674;23.284;2023-02-12T02:35:57;95598.25;;;7.02;30.07
30819;BME280;17546;42.674;23.284;2023-02-12T02:39:01;95591.22;;;6.48;31.33
30819;BME280;17546;42.674;23.284;2023-02-12T02:41:34;95603.91;;;6.76;31.22
30819;BME280;17546;42.674;23.284;2023-02-12T02:44:41;95608.53;;;7.11;30.55
30819;BME280;17546;42.674;23.284;2023-02-12T02:47:06;95603.53;;;6.87;30.62
30819;BME280;17546;42.674;23.284;2023-02-12T02:49:39;95620.38;;;7.30;30.70
30819;BME280;17546;42.674;23.284;2023-02-12T02:52:09;95618.75;;;7.01;30.65
30819;BME280;17546;42.674;23.284;2023-02-12T02:54:40;95601.00;;;7.52;29.90
30819;BME280;17546;42.674;23.284;2023-02-12T02:57:12;95606.78;;;7.35;30.68
30819;BME280;17546;42.674;23.284;2023-02-12T02:59:46;95613.53;;;7.34;30.63
30819;BME280;17546;42.674;23.284;2023-02-12T03:02:36;95615.41;;;7.47;30.53
30819;BME280;17546;42.674;23.284;2023-02-12T03:05:09;95615.84;;;7.45;30.54
30819;BME280;17546;42.674;23.284;2023-02-12T03:07:51;95613.81;;;6.96;31.80
30819;BME280;17546;42.674;23.284;2023-02-12T03:10:26;95614.66;;;7.06;31.30
30819;BME280;17546;42.674;23.284;2023-02-12T03:13:01;95612.63;;;6.97;31.13
30819;BME280;17546;42.674;23.284;2023-02-12T03:15:46;95607.56;;;6.95;31.47
30819;BME280;17546;42.674;23.284;2023-02-12T03:18:26;95616.63;;;6.74;31.80
30819;BME280;17546;42.674;23.284;2023-02-12T03:20:59;95612.50;;;6.78;31.88
30819;BME280;17546;42.674;23.284;2023-02-12T03:23:30;95607.63;;;7.14;31.18
30819;BME280;17546;42.674;23.284;2023-02-12T03:26:15;95606.13;;;7.22;31.35
30819;BME280;17546;42.674;23.284;2023-02-12T03:28:45;95601.66;;;7.15;31.23
30819;BME280;17546;42.674;23.284;2023-02-12T03:31:52;95607.53;;;7.27;31.53
30819;BME280;17546;42.674;23.284;2023-02-12T03:34:29;95599.13;;;7.98;30.54
30819;BME280;17546;42.674;23.284;2023-02-12T03:39:33;95597.16;;;8.45;30.10
30819;BME280;17546;42.674;23.284;2023-02-12T03:42:06;95598.81;;;8.61;30.15
30819;BME280;17546;42.674;23.284;2023-02-12T03:45:00;95590.16;;;8.77;29.56
30819;BME280;17546;42.674;23.284;2023-02-12T03:50:20;95597.16;;;8.45;29.60
30819;BME280;17546;42.674;23.284;2023-02-12T03:52:49;95596.31;;;8.81;29.27
30819;BME280;17546;42.674;23.284;2023-02-12T03:55:15;95598.88;;;8.94;29.30
30819;BME280;17546;42.674;23.284;2023-02-12T03:57:45;95586.78;;;8.92;29.69
30819;BME280;17546;42.674;23.284;2023-02-12T04:00:22;95600.59;;;8.92;29.65
30819;BME280;17546;42.674;23.284;2023-02-12T04:02:48;95603.94;;;9.05;29.36
30819;BME280;17546;42.674;23.284;2023-02-12T04:05:26;95594.72;;;8.99;29.65
30819;BME280;17546;42.674;23.284;2023-02-12T04:07:52;95586.28;;;9.02;29.72
30819;BME280;17546;42.674;23.284;2023-02-12T04:10:33;95590.28;;;8.92;29.71
30819;BME280;17546;42.674;23.284;2023-02-12T04:13:24;95599.00;;;9.09;29.52
30819;BME280;17546;42.674;23.284;2023-02-12T04:16:21;95601.91;;;9.05;29.37
30819;BME280;17546;42.674;23.284;2023-02-12T04:18:49;95608.84;;;9.01;29.88
30819;BME280;17546;42.674;23.284;2023-02-12T04:24:17;95616.09;;;8.89;29.92
30819;BME280;17546;42.674;23.284;2023-02-12T04:27:09;95614.44;;;8.73;30.09
30819;BME280;17546;42.674;23.284;2023-02-12T04:29:55;95607.41;;;8.63;30.13
30819;BME280;17546;42.674;23.284;2023-02-12T04:32:45;95615.53;;;8.66;30.35
30819;BME280;17546;42.674;23.284;2023-02-12T04:35:36;95614.91;;;8.53;30.75
30819;BME280;17546;42.674;23.284;2023-02-12T04:38:10;95620.88;;;8.24;30.67
30819;BME280;17546;42.674;23.284;2023-02-12T04:40:39;95616.91;;;8.25;30.88
30819;BME280;17546;42.674;23.284;2023-02-12T04:43:05;95621.06;;;8.20;31.16
30819;BME280;17546;42.674;23.284;2023-02-12T04:45:33;95616.13;;;8.15;31.23
30819;BME280;17546;42.674;23.284;2023-02-12T04:47:59;95620.44;;;8.25;30.93
30819;BME280;17546;42.674;23.284;2023-02-12T04:50:25;95628.56;;;8.38;30.91
30819;BME280;17546;42.674;23.284;2023-02-12T04:52:52;95635.63;;;8.30;31.06
30819;BME280;17546;42.674;23.284;2023-02-12T04:55:18;95633.94;;;8.33;31.04
30819;BME280;17546;42.674;23.284;2023-02-12T04:57:43;95638.69;;;8.51;31.03
30819;BME280;17546;42.674;23.284;2023-02-12T05:00:12;95644.53;;;8.62;30.88
30819;BME280;17546;42.674;23.284;2023-02-12T05:02:37;95643.75;;;8.61;30.47
30819;BME280;17546;42.674;23.284;2023-02-12T05:05:03;95639.75;;;8.35;31.01
30819;BME280;17546;42.674;23.284;2023-02-12T05:07:29;95641.91;;;7.53;32.28
30819;BME280;17546;42.674;23.284;2023-02-12T05:09:54;95647.25;;;7.97;31.34
30819;BME280;17546;42.674;23.284;2023-02-12T05:12:19;95651.38;;;8.02;31.26
30819;BME280;17546;42.674;23.284;2023-02-12T05:14:45;95654.81;;;6.94;32.98
30819;BME280;17546;42.674;23.284;2023-02-12T05:17:10;95658.75;;;6.83;33.19
30819;BME280;17546;42.674;23.284;2023-02-12T05:19:37;95657.09;;;6.42;33.82
30819;BME280;17546;42.674;23.284;2023-02-12T05:22:02;95661.09;;;6.94;33.46
30819;BME280;17546;42.674;23.284;2023-02-12T05:24:28;95663.28;;;7.31;32.75
30819;BME280;17546;42.674;23.284;2023-02-12T05:26:53;95662.78;;;6.92;32.88
30819;BME280;17546;42.674;23.284;2023-02-12T05:29:19;95657.03;;;5.98;34.48
30819;BME280;17546;42.674;23.284;2023-02-12T05:31:44;95661.94;;;5.90;35.76
30819;BME280;17546;42.674;23.284;2023-02-12T05:34:11;95668.28;;;6.13;35.29
30819;BME280;17546;42.674;23.284;2023-02-12T05:36:38;95662.84;;;5.87;36.55
30819;BME280;17546;42.674;23.284;2023-02-12T05:39:05;95658.78;;;5.79;36.93
30819;BME280;17546;42.674;23.284;2023-02-12T05:41:32;95682.94;;;6.45;35.27
30819;BME280;17546;42.674;23.284;2023-02-12T05:44:00;95675.06;;;5.99;37.05
30819;BME280;17546;42.674;23.284;2023-02-12T05:46:26;95673.53;;;5.98;37.61
30819;BME280;17546;42.674;23.284;2023-02-12T05:48:52;95691.78;;;5.92;37.90
30819;BME280;17546;42.674;23.284;2023-02-12T05:51:21;95703.53;;;5.92;37.84
30819;BME280;17546;42.674;23.284;2023-02-12T05:53:49;95684.44;;;6.24;37.49
30819;BME280;17546;42.674;23.284;2023-02-12T05:58:43;95692.00;;;6.32;36.99
30819;BME280;17546;42.674;23.284;2023-02-12T06:01:19;95695.47;;;6.46;37.44
30819;BME280;17546;42.674;23.284;2023-02-12T06:03:45;95699.53;;;6.54;36.96
30819;BME280;17546;42.674;23.284;2023-02-12T06:06:11;95699.16;;;6.43;37.92
30819;BME280;17546;42.674;23.284;2023-02-12T06:08:37;95701.94;;;6.30;38.18
30819;BME280;17546;42.674;23.284;2023-02-12T06:11:05;95702.69;;;5.95;39.69
30819;BME280;17546;42.674;23.284;2023-02-12T06:13:31;95695.84;;;5.87;39.94
30819;BME280;17546;42.674;23.284;2023-02-12T06:15:58;95697.69;;;6.16;40.37
30819;BME280;17546;42.674;23.284;2023-02-12T06:18:24;95698.41;;;6.29;39.48
30819;BME280;17546;42.674;23.284;2023-02-12T06:20:50;95700.44;;;6.16;40.66
30819;BME280;17546;42.674;23.284;2023-02-12T06:23:15;95709.50;;;6.38;39.70
30819;BME280;17546;42.674;23.284;2023-02-12T06:25:40;95702.88;;;6.14;40.50
30819;BME280;17546;42.674;23.284;2023-02-12T06:28:06;95711.28;;;6.32;41.10
30819;BME280;17546;42.674;23.284;2023-02-12T06:30:34;95700.59;;;5.61;43.09
30819;BME280;17546;42.674;23.284;2023-02-12T06:33:00;95701.78;;;5.73;43.95
30819;BME280;17546;42.674;23.284;2023-02-12T06:35:26;95705.28;;;6.12;43.58
30819;BME280;17546;42.674;23.284;2023-02-12T06:37:51;95701.78;;;5.73;44.49
30819;BME280;17546;42.674;23.284;2023-02-12T06:40:17;95705.19;;;6.15;44.30
30819;BME280;17546;42.674;23.284;2023-02-12T06:42:42;95708.88;;;6.56;43.03
30819;BME280;17546;42.674;23.284;2023-02-12T06:45:08;95709.91;;;6.72;42.75
30819;BME280;17546;42.674;23.284;2023-02-12T06:47:33;95706.72;;;6.73;42.92
30819;BME280;17546;42.674;23.284;2023-02-12T06:49:59;95710.78;;;6.81;42.16
30819;BME280;17546;42.674;23.284;2023-02-12T06:52:24;95717.31;;;6.75;43.03
30819;BME280;17546;42.674;23.284;2023-02-12T06:54:49;95711.38;;;6.86;42.42
30819;BME280;17546;42.674;23.284;2023-02-12T06:57:15;95710.28;;;7.05;42.03
30819;BME280;17546;42.674;23.284;2023-02-12T06:59:40;95716.84;;;6.98;41.72
30819;BME280;17546;42.674;23.284;2023-02-12T07:02:06;95709.00;;;7.50;41.24
30819;BME280;17546;42.674;23.284;2023-02-12T07:04:31;95719.00;;;7.26;41.35
30819;BME280;17546;42.674;23.284;2023-02-12T07:06:57;95712.16;;;7.08;41.73
30819;BME280;17546;42.674;23.284;2023-02-12T07:09:22;95710.84;;;6.91;42.21
30819;BME280;17546;42.674;23.284;2023-02-12T07:11:47;95711.56;;;7.13;41.63
30819;BME280;17546;42.674;23.284;2023-02-12T07:14:14;95709.78;;;6.53;42.52
30819;BME280;17546;42.674;23.284;2023-02-12T07:16:40;95710.44;;;7.01;41.92
30819;BME280;17546;42.674;23.284;2023-02-12T07:19:05;95696.69;;;6.79;41.88
30819;BME280;17546;42.674;23.284;2023-02-12T07:21:31;95694.03;;;6.98;41.50
30819;BME280;17546;42.674;23.284;2023-02-12T07:23:57;95709.59;;;7.14;41.48
30819;BME280;17546;42.674;23.284;2023-02-12T07:26:22;95707.75;;;7.42;40.88
30819;BME280;17546;42.674;23.284;2023-02-12T07:28:49;95716.06;;;7.51;40.77
30819;BME280;17546;42.674;23.284;2023-02-12T07:31:20;95712.28;;;6.82;42.23
30819;BME280;17546;42.674;23.284;2023-02-12T07:33:47;95704.94;;;6.79;41.87
30819;BME280;17546;42.674;23.284;2023-02-12T07:36:17;95718.69;;;7.23;41.33
30819;BME280;17546;42.674;23.284;2023-02-12T07:38:43;95712.81;;;7.43;40.84
30819;BME280;17546;42.674;23.284;2023-02-12T07:43:46;95711.78;;;7.19;41.31
30819;BME280;17546;42.674;23.284;2023-02-12T07:46:21;95726.25;;;7.32;41.54
30819;BME280;17546;42.674;23.284;2023-02-12T07:48:47;95727.63;;;7.37;41.35
30819;BME280;17546;42.674;23.284;2023-02-12T07:51:15;95735.94;;;6.93;42.35
30819;BME280;17546;42.674;23.284;2023-02-12T07:53:41;95734.59;;;7.19;41.91
30819;BME280;17546;42.674;23.284;2023-02-12T07:56:18;95740.28;;;6.81;42.63
30819;BME280;17546;42.674;23.284;2023-02-12T07:58:45;95735.78;;;7.18;43.38
30819;BME280;17546;42.674;23.284;2023-02-12T08:01:12;95741.19;;;7.53;41.53
30819;BME280;17546;42.674;23.284;2023-02-12T08:03:37;95744.91;;;7.59;41.44
30819;BME280;17546;42.674;23.284;2023-02-12T08:06:11;95738.75;;;7.24;41.95
30819;BME280;17546;42.674;23.284;2023-02-12T08:08:37;95731.13;;;7.28;41.95
30819;BME280;17546;42.674;23.284;2023-02-12T08:11:07;95738.88;;;7.52;41.81
30819;BME280;17546;42.674;23.284;2023-02-12T08:13:35;95747.00;;;7.24;42.60
30819;BME280;17546;42.674;23.284;2023-02-12T08:16:06;95749.25;;;7.70;41.61
30819;BME280;17546;42.674;23.284;2023-02-12T08:18:33;95736.88;;;7.43;42.13
30819;BME280;17546;42.674;23.284;2023-02-12T08:21:07;95737.47;;;7.47;41.85
30819;BME280;17546;42.674;23.284;2023-02-12T08:23:33;95734.97;;;6.87;42.92
30819;BME280;17546;42.674;23.284;2023-02-12T08:28:30;95746.50;;;6.37;44.65
30819;BME280;17546;42.674;23.284;2023-02-12T08:31:09;95761.78;;;6.51;44.45
30819;BME280;17546;42.674;23.284;2023-02-12T08:33:35;95755.91;;;6.14;45.33
30819;BME280;17546;42.674;23.284;2023-02-12T08:36:06;95761.81;;;6.26;44.64
30819;BME280;17546;42.674;23.284;2023-02-12T08:38:33;95772.22;;;6.09;45.53
30819;BME280;17546;42.674;23.284;2023-02-12T08:41:00;95772.06;;;6.12;45.50
30819;BME280;17546;42.674;23.284;2023-02-12T08:43:26;95768.56;;;6.59;44.86
30819;BME280;17546;42.674;23.284;2023-02-12T08:45:53;95775.38;;;6.90;44.13
30819;BME280;17546;42.674;23.284;2023-02-12T08:48:19;95771.28;;;7.16;43.43
30819;BME280;17546;42.674;23.284;2023-02-12T08:50:45;95780.66;;;6.75;43.79
30819;BME280;17546;42.674;23.284;2023-02-12T08:53:11;95778.81;;;6.59;44.50
30819;BME280;17546;42.674;23.284;2023-02-12T08:55:38;95775.72;;;7.14;43.34
30819;BME280;17546;42.674;23.284;2023-02-12T08:58:03;95785.06;;;7.38;42.74
30819;BME280;17546;42.674;23.284;2023-02-12T09:00:28;95783.91;;;6.48;44.53
30819;BME280;17546;42.674;23.284;2023-02-12T09:02:54;95783.78;;;6.51;44.79
30819;BME280;17546;42.674;23.284;2023-02-12T09:05:19;95784.19;;;7.19;43.14
30819;BME280;17546;42.674;23.284;2023-02-12T09:07:45;95792.84;;;7.31;43.32
30819;BME280;17546;42.674;23.284;2023-02-12T09:10:10;95795.69;;;7.49;42.53
30819;BME280;17546;42.674;23.284;2023-02-12T09:12:36;95805.47;;;6.97;44.04
30819;BME280;17546;42.674;23.284;2023-02-12T09:15:02;95804.44;;;7.26;43.52
30819;BME280;17546;42.674;23.284;2023-02-12T09:17:27;95803.03;;;6.99;44.25
30819;BME280;17546;42.674;23.284;2023-02-12T09:19:54;95813.88;;;7.15;43.35
30819;BME280;17546;42.674;23.284;2023-02-12T09:22:20;95813.56;;;6.78;44.65
30819;BME280;17546;42.674;23.284;2023-02-12T09:24:45;95793.75;;;6.71;44.45
30819;BME280;17546;42.674;23.284;2023-02-12T09:27:11;95811.00;;;7.19;44.12
30819;BME280;17546;42.674;23.284;2023-02-12T09:29:36;95805.84;;;7.30;43.44
30819;BME280;17546;42.674;23.284;2023-02-12T09:32:01;95800.66;;;7.10;43.99
30819;BME280;17546;42.674;23.284;2023-02-12T09:34:33;95805.28;;;7.66;43.04
30819;BME280;17546;42.674;23.284;2023-02-12T09:36:59;95798.69;;;7.64;42.70
30819;BME280;17546;42.674;23.284;2023-02-12T09:39:24;95813.84;;;7.59;43.19
30819;BME280;17546;42.674;23.284;2023-02-12T09:47:20;95816.81;;;7.43;42.98
30819;BME280;17546;42.674;23.284;2023-02-12T09:52:33;95821.22;;;7.18;43.73
30819;BME280;17546;42.674;23.284;2023-02-12T09:54:59;95822.38;;;7.08;43.48
30819;BME280;17546;42.674;23.284;2023-02-12T09:57:35;95840.00;;;6.76;44.57
30819;BME280;17546;42.674;23.284;2023-02-12T10:00:09;95833.84;;;7.07;44.67
30819;BME280;17546;42.674;23.284;2023-02-12T10:02:36;95827.00;;;7.33;43.44
30819;BME280;17546;42.674;23.284;2023-02-12T10:05:05;95825.47;;;7.54;43.17
30819;BME280;17546;42.674;23.284;2023-02-12T10:13:01;95827.97;;;7.17;44.15
30819;BME280;17546;42.674;23.284;2023-02-12T10:15:33;95829.75;;;6.76;45.25
30819;BME280;17546;42.674;23.284;2023-02-12T10:18:18;95840.94;;;6.95;45.09
30819;BME280;17546;42.674;23.284;2023-02-12T10:24:02;95828.47;;;6.68;45.15
30819;BME280;17546;42.674;23.284;2023-02-12T10:26:51;95819.81;;;7.14;44.66
30819;BME280;17546;42.674;23.284;2023-02-12T10:29:25;95816.31;;;7.66;43.74
30819;BME280;17546;42.674;23.284;2023-02-12T10:31:57;95811.38;;;7.08;44.29
30819;BME280;17546;42.674;23.284;2023-02-12T10:34:27;95819.63;;;7.52;43.87
30819;BME280;17546;42.674;23.284;2023-02-12T10:37:00;95821.59;;;7.30;44.28
30819;BME280;17546;42.674;23.284;2023-02-12T10:39:44;95826.19;;;7.77;43.37
30819;BME280;17546;42.674;23.284;2023-02-12T10:42:40;95831.31;;;7.56;43.66
30819;BME280;17546;42.674;23.284;2023-02-12T10:45:15;95829.56;;;7.50;43.97
30819;BME280;17546;42.674;23.284;2023-02-12T10:47:43;95832.00;;;7.70;43.65
30819;BME280;17546;42.674;23.284;2023-02-12T10:50:33;95840.53;;;7.94;43.25
30819;BME280;17546;42.674;23.284;2023-02-12T10:53:02;95825.91;;;7.84;43.21
30819;BME280;17546;42.674;23.284;2023-02-12T10:55:33;95826.25;;;7.33;44.23
30819;BME280;17546;42.674;23.284;2023-02-12T10:58:01;95822.56;;;7.36;44.65
30819;BME280;17546;42.674;23.284;2023-02-12T11:00:37;95821.09;;;8.06;43.32
30819;BME280;17546;42.674;23.284;2023-02-12T11:05:42;95828.81;;;8.52;42.16
30819;BME280;17546;42.674;23.284;2023-02-12T11:08:32;95827.44;;;8.57;42.13
30819;BME280;17546;42.674;23.284;2023-02-12T11:13:45;95827.50;;;8.84;41.57
30819;BME280;17546;42.674;23.284;2023-02-12T11:16:13;95829.78;;;8.86;41.25
30819;BME280;17546;42.674;23.284;2023-02-12T11:18:41;95836.41;;;8.98;41.14
30819;BME280;17546;42.674;23.284;2023-02-12T11:21:08;95827.19;;;9.10;40.84
30819;BME280;17546;42.674;23.284;2023-02-12T11:23:39;95825.94;;;9.48;40.45
30819;BME280;17546;42.674;23.284;2023-02-12T11:29:01;95823.50;;;9.41;40.18
30819;BME280;17546;42.674;23.284;2023-02-12T11:31:32;95835.50;;;9.38;40.32
30819;BME280;17546;42.674;23.284;2023-02-12T11:36:40;95824.72;;;9.49;40.13
30819;BME280;17546;42.674;23.284;2023-02-12T11:39:18;95827.78;;;8.77;41.44
30819;BME280;17546;42.674;23.284;2023-02-12T11:41:49;95829.34;;;9.24;40.45
30819;BME280;17546;42.674;23.284;2023-02-12T11:44:19;95823.47;;;8.67;41.44
30819;BME280;17546;42.674;23.284;2023-02-12T11:47:16;95821.38;;;9.17;40.64
30819;BME280;17546;42.674;23.284;2023-02-12T11:49:40;95821.03;;;9.43;40.04
30819;BME280;17546;42.674;23.284;2023-02-12T11:52:19;95821.78;;;8.79;41.14
30819;BME280;17546;42.674;23.284;2023-02-12T11:54:46;95820.13;;;9.09;40.34
30819;BME280;17546;42.674;23.284;2023-02-12T11:57:34;95818.72;;;9.50;40.14
30819;BME280;17546;42.674;23.284;2023-02-12T12:00:00;95829.91;;;9.56;39.58
30819;BME280;17546;42.674;23.284;2023-02-12T12:02:34;95829.03;;;9.22;40.60
30819;BME280;17546;42.674;23.284;2023-02-12T12:05:12;95815.63;;;9.58;39.83
30819;BME280;17546;42.674;23.284;2023-02-12T12:07:41;95821.03;;;9.61;39.60
30819;BME280;17546;42.674;23.284;2023-02-12T12:12:53;95830.44;;;9.08;40.39
30819;BME280;17546;42.674;23.284;2023-02-12T12:15:29;95830.88;;;9.35;39.63
30819;BME280;17546;42.674;23.284;2023-02-12T12:18:28;95833.66;;;9.44;39.50
30819;BME280;17546;42.674;23.284;2023-02-12T12:24:41;95829.34;;;9.06;40.81
30819;BME280;17546;42.674;23.284;2023-02-12T12:26:41;95833.91;;;9.64;39.40
30819;BME280;17546;42.674;23.284;2023-02-12T12:29:26;95831.47;;;9.39;39.35
30819;BME280;17546;42.674;23.284;2023-02-12T12:32:00;95837.44;;;9.65;39.21
30819;BME280;17546;42.674;23.284;2023-02-12T12:34:28;95844.25;;;9.55;39.61
30819;BME280;17546;42.674;23.284;2023-02-12T12:42:59;95834.50;;;9.78;39.33
30819;BME280;17546;42.674;23.284;2023-02-12T13:07:15;95859.84;;;9.85;39.31
30819;BME280;17546;42.674;23.284;2023-02-12T13:12:39;95861.81;;;10.03;38.64
30819;BME280;17546;42.674;23.284;2023-02-12T13:15:32;95870.69;;;10.07;38.81
30819;BME280;17546;42.674;23.284;2023-02-12T13:18:16;95873.53;;;9.89;39.08
30819;BME280;17546;42.674;23.284;2023-02-12T13:21:00;95864.88;;;10.05;39.23
30819;BME280;17546;42.674;23.284;2023-02-12T13:26:48;95868.00;;;9.80;39.37
30819;BME280;17546;42.674;23.284;2023-02-12T13:32:03;95878.56;;;10.00;39.27
30819;BME280;17546;42.674;23.284;2023-02-12T13:34:31;95879.84;;;9.80;39.50
30819;BME280;17546;42.674;23.284;2023-02-12T13:37:00;95864.97;;;9.68;39.52
30819;BME280;17546;42.674;23.284;2023-02-12T13:39:36;95873.69;;;9.85;39.21
30819;BME280;17546;42.674;23.284;2023-02-12T13:45:23;95879.25;;;10.28;38.90
30819;BME280;17546;42.674;23.284;2023-02-12T13:47:35;95875.06;;;10.42;38.47
30819;BME280;17546;42.674;23.284;2023-02-12T13:52:58;95891.97;;;9.83;39.38
30819;BME280;17546;42.674;23.284;2023-02-12T14:01:03;95889.47;;;10.12;39.08
30819;BME280;17546;42.674;23.284;2023-02-12T14:03:30;95893.19;;;10.00;39.10
30819;BME280;17546;42.674;23.284;2023-02-12T14:06:18;95902.75;;;9.90;39.30
30819;BME280;17546;42.674;23.284;2023-02-12T14:09:08;95905.22;;;9.60;39.67
30819;BME280;17546;42.674;23.284;2023-02-12T14:11:47;95902.63;;;9.66;39.86
30819;BME280;17546;42.674;23.284;2023-02-12T14:14:27;95911.34;;;9.09;40.64
30819;BME280;17546;42.674;23.284;2023-02-12T14:16:53;95916.59;;;9.25;40.61
30819;BME280;17546;42.674;23.284;2023-02-12T14:20:04;95919.63;;;9.92;39.59
30819;BME280;17546;42.674;23.284;2023-02-12T14:24:54;95927.03;;;9.77;39.63
30819;BME280;17546;42.674;23.284;2023-02-12T14:37:58;95941.78;;;9.83;39.39
30819;BME280;17546;42.674;23.284;2023-02-12T14:43:00;95942.28;;;9.54;39.87
30819;BME280;17546;42.674;23.284;2023-02-12T14:45:36;95945.81;;;9.45;40.15
30819;BME280;17546;42.674;23.284;2023-02-12T14:48:03;95947.72;;;8.98;41.22
30819;BME280;17546;42.674;23.284;2023-02-12T14:50:36;95955.63;;;9.37;40.82
30819;BME280;17546;42.674;23.284;2023-02-12T14:53:32;95960.72;;;9.66;40.11
30819;BME280;17546;42.674;23.284;2023-02-12T14:55:59;95947.66;;;9.76;39.63
30819;BME280;17546;42.674;23.284;2023-02-12T14:58:26;95949.63;;;9.29;40.68
30819;BME280;17546;42.674;23.284;2023-02-12T15:00:54;95954.69;;;9.21;40.88
30819;BME280;17546;42.674;23.284;2023-02-12T15:03:37;95955.50;;;8.81;41.58
30819;BME280;17546;42.674;23.284;2023-02-12T15:09:12;95974.53;;;8.79;42.29
30819;BME280;17546;42.674;23.284;2023-02-12T15:11:42;95976.66;;;9.34;41.21
30819;BME280;17546;42.674;23.284;2023-02-12T15:14:21;95989.44;;;9.50;40.84
30819;BME280;17546;42.674;23.284;2023-02-12T15:16:54;95987.59;;;9.28;41.24
30819;BME280;17546;42.674;23.284;2023-02-12T15:21:59;95998.34;;;9.36;41.34
30819;BME280;17546;42.674;23.284;2023-02-12T15:24:26;96003.25;;;9.41;41.07
30819;BME280;17546;42.674;23.284;2023-02-12T15:26:56;96018.81;;;8.98;42.07
30819;BME280;17546;42.674;23.284;2023-02-12T15:29:29;96020.16;;;9.34;41.36